createdAt,value
2017-11-06T00:01:17.758Z,98151.68
2017-11-06T00:03:47.702Z,98153.80
2017-11-06T00:06:17.575Z,98149.93
2017-11-06T00:08:50.611Z,98155.70
2017-11-06T00:11:20.603Z,98150.34
2017-11-06T00:13:51.055Z,98151.53
2017-11-06T00:16:22.163Z,98155.70
2017-11-06T00:18:51.995Z,98156.03
2017-11-06T00:21:21.919Z,98161.80
2017-11-06T00:23:54.565Z,98160.45
2017-11-06T00:26:24.449Z,98158.84
2017-11-06T00:28:58.189Z,98161.64
2017-11-06T00:31:28.139Z,98160.87
2017-11-06T00:33:58.018Z,98157.96
2017-11-06T00:36:28.851Z,98162.61
2017-11-06T00:38:58.816Z,98165.81
2017-11-06T00:41:28.753Z,98163.18
2017-11-06T00:43:58.609Z,98171.55
2017-11-06T00:46:28.705Z,98167.38
2017-11-06T00:48:59.036Z,98177.11
2017-11-06T00:51:29.805Z,98171.42
2017-11-06T00:54:00.971Z,98173.32
2017-11-06T00:56:30.899Z,98174.80
2017-11-06T00:59:00.957Z,98178.97
2017-11-06T01:01:31.536Z,98181.24
2017-11-06T01:04:01.384Z,98187.08
2017-11-06T01:06:31.179Z,98190.55
2017-11-06T01:09:01.241Z,98192.38
2017-11-06T01:11:30.903Z,98189.76
2017-11-06T01:14:02.444Z,98192.23
2017-11-06T01:16:32.575Z,98192.38
2017-11-06T01:19:04.136Z,98190.61
2017-11-06T01:21:34.026Z,98188.88
2017-11-06T01:24:03.886Z,98189.91
2017-11-06T01:26:33.698Z,98185.98
2017-11-06T01:29:03.925Z,98190.89
2017-11-06T01:31:39.008Z,98187.76
2017-11-06T01:34:08.839Z,98189.59
2017-11-06T01:36:38.858Z,98185.23
2017-11-06T01:39:09.723Z,98179.42
2017-11-06T01:41:50.380Z,98185.49
2017-11-06T01:44:22.786Z,98180.77
2017-11-06T01:46:52.642Z,98181.88
2017-11-06T01:49:23.084Z,98182.54
2017-11-06T01:51:52.902Z,98183.28
2017-11-06T01:54:22.794Z,98182.22
2017-11-06T01:57:07.624Z,98182.74
2017-11-06T01:59:37.498Z,98181.24
2017-11-06T02:02:07.427Z,98183.41
2017-11-06T02:04:37.348Z,98177.64
2017-11-06T02:07:07.570Z,98173.45
2017-11-06T02:09:37.394Z,98180.92
2017-11-06T02:12:07.186Z,98178.38
2017-11-06T02:14:37.094Z,98184.94
2017-11-06T02:17:06.774Z,98188.48
2017-11-06T02:19:36.629Z,98185.73
2017-11-06T02:22:06.140Z,98192.61
2017-11-06T02:24:35.383Z,98185.01
2017-11-06T02:27:04.871Z,98182.08
2017-11-06T02:29:34.372Z,98177.95
2017-11-06T02:32:03.872Z,98178.42
2017-11-06T02:34:33.951Z,98189.37
2017-11-06T02:37:04.013Z,98187.44
2017-11-06T02:39:33.731Z,98190.70
2017-11-06T02:42:03.604Z,98194.90
2017-11-06T02:44:33.431Z,98193.61
2017-11-06T02:47:03.174Z,98195.77
2017-11-06T02:49:33.914Z,98193.65
2017-11-06T02:52:03.795Z,98195.42
2017-11-06T02:54:33.785Z,98200.42
2017-11-06T02:57:03.463Z,98197.74
2017-11-06T02:59:33.185Z,98209.18
2017-11-06T03:02:02.889Z,98212.69
2017-11-06T03:04:32.708Z,98219.96
2017-11-06T03:07:02.380Z,98211.00
2017-11-06T03:09:32.494Z,98213.33
2017-11-06T03:12:02.332Z,98213.80
2017-11-06T03:14:32.144Z,98217.01
2017-11-06T03:17:02.026Z,98224.75
2017-11-06T03:19:31.830Z,98223.64
2017-11-06T03:22:01.507Z,98226.14
2017-11-06T03:24:31.382Z,98219.38
2017-11-06T03:27:01.210Z,98228.98
2017-11-06T03:29:31.018Z,98236.33
2017-11-06T03:32:00.843Z,98243.38
2017-11-06T03:38:31.849Z,98246.98
2017-11-06T03:41:02.119Z,98251.80
2017-11-06T03:43:31.894Z,98265.37
2017-11-06T03:46:01.739Z,98264.20
2017-11-06T03:48:31.647Z,98265.65
2017-11-06T03:51:01.408Z,98264.09
2017-11-06T03:53:31.080Z,98271.00
2017-11-06T03:56:00.989Z,98274.39
2017-11-06T03:58:31.231Z,98275.03
2017-11-06T04:01:01.352Z,98270.64
2017-11-06T04:03:31.532Z,98273.25
2017-11-06T04:06:01.343Z,98274.25
2017-11-06T04:08:31.205Z,98285.85
2017-11-06T04:11:01.044Z,98286.84
2017-11-06T04:13:30.911Z,98292.65
2017-11-06T04:16:01.563Z,98296.05
2017-11-06T04:18:31.403Z,98303.25
2017-11-06T04:21:01.276Z,98307.05
2017-11-06T04:23:31.179Z,98304.66
2017-11-06T04:26:01.041Z,98307.38
2017-11-06T04:28:30.873Z,98303.95
2017-11-06T04:31:01.042Z,98305.28
2017-11-06T04:33:31.011Z,98308.55
2017-11-06T04:36:00.680Z,98307.92
2017-11-06T04:38:30.511Z,98302.73
2017-11-06T04:41:00.433Z,98309.77
2017-11-06T04:43:30.337Z,98309.66
2017-11-06T04:46:00.772Z,98318.05
2017-11-06T04:48:30.740Z,98317.98
2017-11-06T04:51:01.575Z,98330.57
2017-11-06T04:53:31.439Z,98329.86
2017-11-06T04:56:01.392Z,98330.32
2017-11-06T04:58:31.314Z,98330.11
2017-11-06T05:01:01.161Z,98324.93
2017-11-06T05:03:31.032Z,98327.55
2017-11-06T05:06:00.908Z,98334.12
2017-11-06T05:08:30.800Z,98336.22
2017-11-06T05:11:00.740Z,98341.74
2017-11-06T05:13:30.699Z,98337.16
2017-11-06T05:16:00.542Z,98347.28
2017-11-06T05:18:30.584Z,98352.06
2017-11-06T05:21:00.462Z,98354.80
2017-11-06T05:23:30.244Z,98353.98
2017-11-06T05:26:00.090Z,98361.03
2017-11-06T05:28:29.883Z,98363.81
2017-11-06T05:30:59.792Z,98369.72
2017-11-06T05:33:30.103Z,98371.08
2017-11-06T05:35:59.861Z,98369.59
2017-11-06T05:38:29.552Z,98378.84
2017-11-06T05:40:59.216Z,98380.83
2017-11-06T05:43:29.027Z,98379.88
2017-11-06T05:45:58.835Z,98387.87
2017-11-06T05:48:28.579Z,98389.09
2017-11-06T05:50:58.391Z,98393.41
2017-11-06T05:53:28.090Z,98391.33
2017-11-06T05:55:57.862Z,98400.98
2017-11-06T05:58:29.178Z,98392.52
2017-11-06T06:00:59.746Z,98409.19
2017-11-06T06:03:29.530Z,98413.39
2017-11-06T06:05:59.377Z,98415.83
2017-11-06T06:08:29.210Z,98417.05
2017-11-06T06:10:58.983Z,98421.89
2017-11-06T06:13:29.788Z,98424.87
2017-11-06T06:15:59.552Z,98428.36
2017-11-06T06:18:29.387Z,98433.20
2017-11-06T06:20:59.193Z,98439.71
2017-11-06T06:23:28.957Z,98442.33
2017-11-06T06:25:58.844Z,98443.92
2017-11-06T06:28:28.611Z,98447.04
2017-11-06T06:30:58.437Z,98455.81
2017-11-06T06:33:28.205Z,98462.27
2017-11-06T06:35:59.001Z,98463.65
2017-11-06T06:38:28.842Z,98464.48
2017-11-06T06:40:58.281Z,98468.57
2017-11-06T06:43:28.062Z,98476.42
2017-11-06T06:45:57.802Z,98476.30
2017-11-06T06:48:39.757Z,98477.95
2017-11-06T06:51:24.867Z,98480.70
2017-11-06T06:53:55.538Z,98495.30
2017-11-06T06:56:25.279Z,98499.18
2017-11-06T06:58:54.881Z,98504.61
2017-11-06T07:01:24.628Z,98502.00
2017-11-06T07:03:54.407Z,98500.25
2017-11-06T07:06:28.213Z,98512.40
2017-11-06T07:08:58.048Z,98523.11
2017-11-06T07:11:27.994Z,98524.14
2017-11-06T07:13:57.384Z,98524.50
2017-11-06T07:16:27.145Z,98526.88
2017-11-06T07:18:57.454Z,98535.58
2017-11-06T07:21:27.736Z,98536.66
2017-11-06T07:23:57.477Z,98545.30
2017-11-06T07:26:27.238Z,98543.64
2017-11-06T07:28:57.049Z,98543.61
2017-11-06T07:31:26.789Z,98553.53
2017-11-06T07:33:56.884Z,98556.05
2017-11-06T07:36:26.513Z,98557.41
2017-11-06T07:38:56.253Z,98563.02
2017-11-06T07:41:26.114Z,98567.72
2017-11-06T07:43:56.378Z,98575.02
2017-11-06T07:46:26.142Z,98581.41
2017-11-06T07:48:55.880Z,98581.22
2017-11-06T07:51:25.664Z,98589.71
2017-11-06T07:53:59.916Z,98584.36
2017-11-06T07:56:29.695Z,98589.40
2017-11-06T07:58:59.456Z,98597.06
2017-11-06T08:01:29.320Z,98602.33
2017-11-06T08:03:59.760Z,98595.27
2017-11-06T08:06:29.950Z,98596.72
2017-11-06T08:08:59.785Z,98596.81
2017-11-06T08:11:29.597Z,98602.80
2017-11-06T08:13:59.588Z,98598.00
2017-11-06T08:16:29.345Z,98605.05
2017-11-06T08:18:59.130Z,98601.96
2017-11-06T08:21:28.847Z,98593.71
2017-11-06T08:23:59.166Z,98598.09
2017-11-06T08:26:29.038Z,98592.77
2017-11-06T08:28:58.806Z,98596.38
2017-11-06T08:31:28.558Z,98596.86
2017-11-06T08:33:58.195Z,98599.52
2017-11-06T08:36:27.962Z,98601.98
2017-11-06T08:38:57.714Z,98597.63
2017-11-06T08:41:28.760Z,98598.39
2017-11-06T08:43:59.085Z,98610.57
2017-11-06T08:46:28.846Z,98618.70
2017-11-06T08:48:59.324Z,98628.98
2017-11-06T08:51:29.090Z,98634.89
2017-11-06T08:53:58.819Z,98638.73
2017-11-06T08:56:28.654Z,98653.91
2017-11-06T08:58:58.742Z,98665.45
2017-11-06T09:01:28.494Z,98663.89
2017-11-06T09:03:58.404Z,98674.28
2017-11-06T09:06:28.147Z,98681.97
2017-11-06T09:08:57.938Z,98687.66
2017-11-06T09:11:27.696Z,98690.50
2017-11-06T09:13:57.681Z,98688.11
2017-11-06T09:16:27.489Z,98686.05
2017-11-06T09:18:57.304Z,98689.30
2017-11-06T09:21:27.431Z,98695.55
2017-11-06T09:23:57.215Z,98698.48
2017-11-06T09:26:26.985Z,98692.34
2017-11-06T09:28:56.911Z,98686.73
2017-11-06T09:31:26.802Z,98696.14
2017-11-06T09:33:56.432Z,98695.14
2017-11-06T09:36:26.219Z,98704.75
2017-11-06T09:38:55.970Z,98701.50
2017-11-06T09:41:25.775Z,98711.67
2017-11-06T09:43:55.610Z,98721.29
2017-11-06T09:46:25.469Z,98725.24
2017-11-06T09:48:55.217Z,98729.95
2017-11-06T09:51:25.164Z,98729.85
2017-11-06T09:53:54.938Z,98726.16
2017-11-06T09:56:24.699Z,98724.72
2017-11-06T09:58:54.780Z,98734.45
2017-11-06T10:01:24.651Z,98743.40
2017-11-06T10:03:54.502Z,98739.02
2017-11-06T10:06:24.100Z,98743.14
2017-11-06T10:08:53.919Z,98747.31
2017-11-06T10:11:23.484Z,98750.37
2017-11-06T10:13:53.433Z,98744.59
2017-11-06T10:16:23.216Z,98741.24
2017-11-06T10:18:53.015Z,98743.41
2017-11-06T10:21:22.585Z,98735.98
2017-11-06T10:23:52.341Z,98734.53
2017-11-06T10:26:22.123Z,98729.37
2017-11-06T10:28:52.666Z,98739.53
2017-11-06T10:31:22.445Z,98743.05
2017-11-06T10:33:52.528Z,98744.75
2017-11-06T10:36:22.628Z,98743.26
2017-11-06T10:38:52.539Z,98745.97
2017-11-06T10:41:22.299Z,98747.06
2017-11-06T10:43:52.056Z,98746.08
2017-11-06T10:46:21.837Z,98739.39
2017-11-06T10:48:53.173Z,98733.03
2017-11-06T10:51:23.064Z,98726.48
2017-11-06T10:53:53.257Z,98734.94
2017-11-06T10:56:22.649Z,98741.09
2017-11-06T10:58:52.397Z,98729.13
2017-11-06T11:01:22.172Z,98732.17
2017-11-06T11:03:51.734Z,98735.00
2017-11-06T11:06:21.478Z,98741.80
2017-11-06T11:08:51.254Z,98736.86
2017-11-06T11:11:25.205Z,98739.75
2017-11-06T11:13:54.968Z,98740.88
2017-11-06T11:16:24.746Z,98746.09
2017-11-06T11:18:54.135Z,98753.47
2017-11-06T11:21:23.891Z,98745.30
2017-11-06T11:23:53.633Z,98755.95
2017-11-06T11:26:23.379Z,98754.39
2017-11-06T11:28:53.995Z,98748.81
2017-11-06T11:31:23.765Z,98752.11
2017-11-06T11:33:53.196Z,98749.31
2017-11-06T11:36:22.980Z,98758.25
2017-11-06T11:38:52.734Z,98755.52
2017-11-06T11:41:22.952Z,98760.17
2017-11-06T11:43:52.818Z,98758.42
2017-11-06T11:46:22.638Z,98756.97
2017-11-06T11:48:52.795Z,98753.87
2017-11-06T11:51:22.555Z,98739.71
2017-11-06T11:53:52.359Z,98739.71
2017-11-06T11:56:22.131Z,98741.02
2017-11-06T11:58:51.951Z,98741.16
2017-11-06T12:01:21.770Z,98752.53
2017-11-06T12:03:51.554Z,98754.50
2017-11-06T12:06:21.277Z,98753.19
2017-11-06T12:08:51.036Z,98756.33
2017-11-06T12:11:20.770Z,98756.98
2017-11-06T12:13:51.171Z,98743.66
2017-11-06T12:16:21.041Z,98739.59
2017-11-06T12:18:50.790Z,98739.17
2017-11-06T12:21:20.511Z,98734.86
2017-11-06T12:23:50.284Z,98736.01
2017-11-06T12:26:19.849Z,98739.47
2017-11-06T12:28:49.615Z,98736.13
2017-11-06T12:31:19.773Z,98743.42
2017-11-06T12:33:49.595Z,98744.19
2017-11-06T12:36:19.328Z,98735.62
2017-11-06T12:38:49.090Z,98740.75
2017-11-06T12:41:18.853Z,98740.47
2017-11-06T12:43:48.643Z,98743.20
2017-11-06T12:46:18.419Z,98748.34
2017-11-06T12:48:48.177Z,98747.34
2017-11-06T12:51:17.922Z,98746.39
2017-11-06T12:53:48.608Z,98747.05
2017-11-06T12:56:18.613Z,98750.68
2017-11-06T12:58:48.382Z,98745.78
2017-11-06T13:01:18.177Z,98754.36
2017-11-06T13:03:47.966Z,98756.05
2017-11-06T13:06:17.735Z,98757.20
2017-11-06T13:08:47.498Z,98763.47
2017-11-06T13:11:17.605Z,98757.45
2017-11-06T13:13:47.557Z,98752.81
2017-11-06T13:16:17.303Z,98746.35
2017-11-06T13:18:47.116Z,98755.98
2017-11-06T13:21:16.893Z,98755.05
2017-11-06T13:23:46.642Z,98756.22
2017-11-06T13:26:16.961Z,98750.55
2017-11-06T13:28:46.505Z,98752.77
2017-11-06T13:31:16.303Z,98759.42
2017-11-06T13:33:46.076Z,98757.42
2017-11-06T13:36:15.807Z,98765.40
2017-11-06T13:38:45.617Z,98760.58
2017-11-06T13:41:15.340Z,98769.09
2017-11-06T13:43:45.293Z,98774.87
2017-11-06T13:46:15.055Z,98760.47
2017-11-06T13:48:44.804Z,98766.66
2017-11-06T13:51:14.560Z,98769.59
2017-11-06T13:53:44.323Z,98766.95
2017-11-06T13:56:14.079Z,98773.47
2017-11-06T13:58:43.818Z,98776.67
2017-11-06T14:01:13.599Z,98779.81
2017-11-06T14:03:43.346Z,98782.25
2017-11-06T14:06:13.185Z,98794.16
2017-11-06T14:08:42.938Z,98797.56
2017-11-06T14:11:12.470Z,98798.97
2017-11-06T14:13:42.232Z,98798.75
2017-11-06T14:16:11.983Z,98804.16
2017-11-06T14:18:41.585Z,98808.40
2017-11-06T14:21:11.329Z,98812.02
2017-11-06T14:23:41.090Z,98814.22
2017-11-06T14:26:10.831Z,98823.55
2017-11-06T14:28:40.619Z,98822.72
2017-11-06T14:31:10.416Z,98814.55
2017-11-06T14:33:40.154Z,98822.03
2017-11-06T14:36:09.917Z,98826.38
2017-11-06T14:38:39.474Z,98825.91
2017-11-06T14:41:08.957Z,98830.70
2017-11-06T14:43:38.730Z,98831.22
2017-11-06T14:46:08.531Z,98835.88
2017-11-06T14:48:38.923Z,98838.17
2017-11-06T14:51:08.699Z,98843.53
2017-11-06T14:53:38.620Z,98846.44
2017-11-06T14:56:08.505Z,98843.47
2017-11-06T14:58:38.261Z,98843.97
2017-11-06T15:01:07.932Z,98850.41
2017-11-06T15:03:37.730Z,98848.69
2017-11-06T15:06:07.529Z,98852.20
2017-11-06T15:08:37.289Z,98859.18
2017-11-06T15:11:07.731Z,98855.78
2017-11-06T15:13:37.498Z,98856.89
2017-11-06T15:16:06.709Z,98853.62
2017-11-06T15:18:36.202Z,98851.95
2017-11-06T15:21:06.027Z,98845.39
2017-11-06T15:23:35.406Z,98850.20
2017-11-06T15:26:05.225Z,98853.15
2017-11-06T15:28:35.145Z,98858.44
2017-11-06T15:31:04.893Z,98853.56
2017-11-06T15:33:34.763Z,98867.71
2017-11-06T15:36:04.551Z,98870.22
2017-11-06T15:38:34.303Z,98862.08
2017-11-06T15:41:04.071Z,98862.41
2017-11-06T15:43:33.820Z,98867.67
2017-11-06T15:46:04.019Z,98876.59
2017-11-06T15:48:33.819Z,98876.50
2017-11-06T15:51:04.132Z,98879.05
2017-11-06T15:53:33.881Z,98875.64
2017-11-06T15:56:03.978Z,98884.53
2017-11-06T15:58:33.817Z,98874.70
2017-11-06T16:01:03.662Z,98880.36
2017-11-06T16:03:33.458Z,98885.31
2017-11-06T16:06:07.226Z,98884.92
2017-11-06T16:08:37.037Z,98880.47
2017-11-06T16:11:07.082Z,98887.53
2017-11-06T16:13:36.879Z,98886.88
2017-11-06T16:16:06.948Z,98893.75
2017-11-06T16:18:36.780Z,98891.62
2017-11-06T16:21:06.567Z,98898.52
2017-11-06T16:23:36.333Z,98895.45
2017-11-06T16:26:06.561Z,98894.73
2017-11-06T16:28:36.356Z,98900.20
2017-11-06T16:31:06.114Z,98905.03
2017-11-06T16:33:35.963Z,98903.02
2017-11-06T16:36:05.801Z,98902.08
2017-11-06T16:38:35.562Z,98905.03
2017-11-06T16:41:05.421Z,98911.88
2017-11-06T16:43:35.162Z,98915.20
2017-11-06T16:46:04.921Z,98915.44
2017-11-06T16:48:34.697Z,98917.28
2017-11-06T16:51:04.483Z,98921.73
2017-11-06T16:53:34.320Z,98922.65
2017-11-06T16:56:04.096Z,98924.11
2017-11-06T16:58:33.875Z,98923.08
2017-11-06T17:01:03.637Z,98926.71
2017-11-06T17:03:33.395Z,98929.03
2017-11-06T17:06:03.478Z,98926.02
2017-11-06T17:08:33.225Z,98933.25
2017-11-06T17:11:03.029Z,98936.91
2017-11-06T17:13:32.841Z,98938.70
2017-11-06T17:16:02.353Z,98941.28
2017-11-06T17:18:32.130Z,98940.41
2017-11-06T17:21:02.126Z,98943.80
2017-11-06T17:23:31.894Z,98943.91
2017-11-06T17:26:01.733Z,98951.73
2017-11-06T17:28:31.602Z,98952.34
2017-11-06T17:31:01.390Z,98954.75
2017-11-06T17:33:31.160Z,98949.31
2017-11-06T17:36:00.914Z,98955.31
2017-11-06T17:38:30.694Z,98963.11
2017-11-06T17:41:00.580Z,98963.57
2017-11-06T17:43:30.391Z,98972.16
2017-11-06T17:46:00.166Z,98974.19
2017-11-06T17:48:29.889Z,98977.25
2017-11-06T17:50:59.691Z,98977.94
2017-11-06T17:53:29.471Z,98974.79
2017-11-06T17:55:59.241Z,98974.19
2017-11-06T17:58:29.890Z,98981.73
2017-11-06T18:00:59.634Z,98983.05
2017-11-06T18:03:29.777Z,98982.48
2017-11-06T18:05:59.596Z,98981.52
2017-11-06T18:08:34.575Z,98987.13
2017-11-06T18:11:04.423Z,98988.18
2017-11-06T18:13:34.251Z,98990.48
2017-11-06T18:16:04.768Z,98992.34
2017-11-06T18:18:35.251Z,98989.50
2017-11-06T18:21:05.651Z,98990.55
2017-11-06T18:23:35.540Z,98992.30
2017-11-06T18:29:30.130Z,98990.03
2017-11-06T18:32:10.827Z,98994.17
2017-11-06T18:34:40.998Z,98989.03
2017-11-06T18:37:11.315Z,98989.95
2017-11-06T18:39:41.199Z,98988.58
2017-11-06T18:42:10.970Z,98989.52
2017-11-06T18:44:40.880Z,98994.17
2017-11-06T18:47:10.775Z,98996.94
2017-11-06T18:52:14.628Z,98986.33
2017-11-06T18:54:44.486Z,98984.66
2017-11-06T18:57:14.236Z,98994.45
2017-11-06T18:59:44.016Z,98999.09
2017-11-06T19:02:13.860Z,98995.81
2017-11-06T19:04:43.702Z,98998.47
2017-11-06T19:07:13.487Z,98996.13
2017-11-06T19:09:43.325Z,98997.80
2017-11-06T19:12:13.255Z,99001.87
2017-11-06T19:14:43.622Z,99003.01
2017-11-06T19:17:13.595Z,99004.14
2017-11-06T19:19:43.579Z,98997.86
2017-11-06T19:22:13.382Z,99001.98
2017-11-06T19:24:43.495Z,99004.23
2017-11-06T19:27:13.327Z,99007.55
2017-11-06T19:29:43.331Z,99007.25
2017-11-06T19:32:14.085Z,99000.64
2017-11-06T19:34:44.438Z,99008.36
2017-11-06T19:39:49.252Z,99009.40
2017-11-06T19:42:19.416Z,99012.78
2017-11-06T19:44:50.021Z,99008.77
2017-11-06T19:47:19.989Z,99016.39
2017-11-06T19:49:50.200Z,99020.20
2017-11-06T19:52:20.169Z,99018.16
2017-11-06T19:54:50.180Z,99025.34
2017-11-06T19:57:20.137Z,99028.76
2017-11-06T19:59:49.958Z,99025.87
2017-11-06T20:02:20.077Z,99021.64
2017-11-06T20:04:50.086Z,99028.24
2017-11-06T20:07:19.921Z,99016.74
2017-11-06T20:09:50.790Z,99030.02
2017-11-06T20:12:20.628Z,99025.48
2017-11-06T20:14:50.571Z,99026.94
2017-11-06T20:17:20.541Z,99023.63
2017-11-06T20:19:50.512Z,99018.50
2017-11-06T20:22:21.119Z,99016.22
2017-11-06T20:24:51.142Z,99017.94
2017-11-06T20:27:21.259Z,99024.32
2017-11-06T20:29:51.360Z,99020.09
2017-11-06T20:32:21.428Z,99016.20
2017-11-06T20:34:51.145Z,99013.53
2017-11-06T20:37:21.210Z,99019.19
2017-11-06T20:39:51.715Z,99027.69
2017-11-06T20:42:21.613Z,99021.75
2017-11-06T20:44:55.680Z,99025.57
2017-11-06T20:47:25.431Z,99024.25
2017-11-06T20:49:59.368Z,99014.91
2017-11-06T20:52:29.169Z,99016.22
2017-11-06T20:54:58.964Z,99019.63
2017-11-06T20:57:30.976Z,99018.20
2017-11-06T21:02:45.153Z,99011.19
2017-11-06T21:05:15.592Z,99014.03
2017-11-06T21:07:46.225Z,99016.10
2017-11-06T21:10:16.205Z,99020.44
2017-11-06T21:12:46.076Z,99019.31
2017-11-06T21:15:15.942Z,99019.79
2017-11-06T21:17:45.732Z,99022.25
2017-11-06T21:20:15.493Z,99029.68
2017-11-06T21:22:45.591Z,99028.66
2017-11-06T21:25:15.567Z,99023.34
2017-11-06T21:27:45.597Z,99030.52
2017-11-06T21:33:23.020Z,99036.09
2017-11-06T21:35:52.865Z,99042.87
2017-11-06T21:38:22.702Z,99043.58
2017-11-06T21:40:52.568Z,99042.45
2017-11-06T21:43:22.448Z,99039.97
2017-11-06T21:45:52.290Z,99042.13
2017-11-06T21:48:21.900Z,99039.38
2017-11-06T21:50:52.919Z,99036.41
2017-11-06T21:53:22.779Z,99035.06
2017-11-06T21:55:52.538Z,99032.28
2017-11-06T21:58:22.310Z,99035.97
2017-11-06T22:00:52.110Z,99040.09
2017-11-06T22:03:21.951Z,99039.08
2017-11-06T22:05:51.717Z,99040.61
2017-11-06T22:08:21.547Z,99034.75
2017-11-06T22:10:51.361Z,99031.77
2017-11-06T22:13:21.271Z,99037.52
2017-11-06T22:15:50.723Z,99044.62
2017-11-06T22:18:20.551Z,99038.95
2017-11-06T22:20:50.037Z,99041.21
2017-11-06T22:23:19.787Z,99039.05
2017-11-06T22:25:48.962Z,99044.20
2017-11-06T22:28:18.940Z,99055.50
2017-11-06T22:30:48.388Z,99048.72
2017-11-06T22:33:18.166Z,99043.19
2017-11-06T22:35:48.072Z,99049.36
2017-11-06T22:38:17.987Z,99049.53
2017-11-06T22:40:47.697Z,99043.28
2017-11-06T22:43:17.576Z,99047.09
2017-11-06T22:45:47.256Z,99044.22
2017-11-06T22:48:17.071Z,99039.17
2017-11-06T22:50:46.693Z,99037.11
2017-11-06T22:53:16.488Z,99040.30
2017-11-06T22:55:46.371Z,99039.59
2017-11-06T22:58:16.149Z,99034.42
2017-11-06T23:00:46.025Z,99033.52
2017-11-06T23:03:15.569Z,99031.88
2017-11-06T23:05:45.383Z,99035.36
2017-11-06T23:08:15.324Z,99030.44
2017-11-06T23:10:45.116Z,99035.56
2017-11-06T23:13:14.901Z,99028.70
2017-11-06T23:15:44.453Z,99030.84
2017-11-06T23:18:14.238Z,99036.41
2017-11-06T23:20:44.059Z,99045.33
2017-11-06T23:23:13.835Z,99048.83
2017-11-06T23:25:43.644Z,99047.70
2017-11-06T23:28:13.983Z,99049.25
2017-11-06T23:30:43.943Z,99044.60
2017-11-06T23:33:13.741Z,99048.01
2017-11-06T23:35:43.329Z,99046.87
2017-11-06T23:38:13.107Z,99042.36
2017-11-06T23:40:42.870Z,99041.84
2017-11-06T23:43:12.642Z,99036.50
2017-11-06T23:45:42.278Z,99033.52
2017-11-06T23:48:11.878Z,99028.69
2017-11-06T23:50:41.486Z,99031.27
2017-11-06T23:53:11.308Z,99028.59
2017-11-06T23:55:41.156Z,99029.92
2017-11-06T23:58:10.762Z,99028.59
